Decoded Metar for K2W6 (CAPT DUKE RGNL in MD, USA) (IATA:2W6) | Meteo·Mobile Aviation Weather
aviador You're here:

K2W6 Decoded Metar

CAPT DUKE RGNL in MD, USA
Report Time2018-12-14 07:23:00
UTC Time2018-12-14 07:47:55
Flight Rules vfr VFR
WindCalm
Visibility9999 m
Phenomena:N/A
Clouds:N/A
CeilingNone
Temp02°C (ISA -13)
Dew Point02°C (100% RH)
AAT0.3°C
QNH1029 hPa
Density Alt-1,850 ft
Elevation144 ft
Report Wrong Elevation
Raw Report
K2W6 140723Z AUTO 00000KT 10SM CLR 02/02 A3040 RMK AO1=

Extra information for K2W6:More info

Metar Taf Metar & Taf Last 4 Metars F.Rules Stats Wind Profile Meteogram Temp Stats Airport Information Weather charts Add Link Nearby VenuesMetar ALERT Operation Metar Decoded Social comments

AIRNAV info for K2W6